Time;durP1;ratioP1;P1;durP2;ratioP2;P2;SDS_P1;SDS_P2;PMS_P1;PMS_P2;Temp;Humidity;BMP_temperature;BMP_pressure;BME280_temperature;BME280_humidity;BME280_pressure;Samples;Min_cycle;Max_cycle;Signal;HPM_P1;HPM_P2
2022/08/20 00:00:17;;;;;;;15.75;11.77;;;18.70;99.90;;;;;;5035837;28;20091;-67
2022/08/20 00:02:48;;;;;;;14.85;12.68;;;18.70;99.90;;;;;;5041451;28;20079;-68
2022/08/20 00:05:15;;;;;;;13.15;11.77;;;18.70;99.90;;;;;;5017621;28;20052;-68
2022/08/20 00:07:41;;;;;;;14.13;11.50;;;18.70;99.90;;;;;;5036842;28;20062;-68
2022/08/20 00:10:08;;;;;;;17.23;13.10;;;18.70;99.90;;;;;;5021523;28;20128;-68
2022/08/20 00:12:35;;;;;;;12.65;11.18;;;18.60;99.90;;;;;;5022398;28;20045;-67
2022/08/20 00:15:03;;;;;;;13.00;11.48;;;18.60;99.90;;;;;;5040183;28;20326;-68
2022/08/20 00:17:48;;;;;;;13.40;11.52;;;18.60;99.90;;;;;;5043732;28;20038;-68
2022/08/20 00:20:15;;;;;;;16.38;10.93;;;18.60;99.90;;;;;;5039498;28;20049;-68
2022/08/20 00:22:40;;;;;;;13.00;10.75;;;18.60;99.90;;;;;;5038442;28;20083;-68
2022/08/20 00:25:08;;;;;;;15.70;10.90;;;18.60;99.90;;;;;;5014053;28;20053;-68
2022/08/20 00:27:35;;;;;;;12.55;9.65;;;18.50;99.90;;;;;;5038424;28;20052;-68
2022/08/20 00:30:01;;;;;;;15.75;11.48;;;18.50;99.90;;;;;;5035632;28;20354;-68
2022/08/20 00:32:26;;;;;;;17.60;10.18;;;18.50;99.90;;;;;;5040700;28;20072;-68
2022/08/20 00:34:52;;;;;;;19.30;13.07;;;18.50;99.90;;;;;;5024182;28;20487;-68
2022/08/20 00:37:18;;;;;;;13.88;10.43;;;18.50;99.90;;;;;;5024940;28;20519;-67
2022/08/20 00:39:43;;;;;;;16.33;11.30;;;18.50;99.90;;;;;;5045149;28;20037;-67
2022/08/20 00:42:10;;;;;;;15.63;10.43;;;18.50;99.90;;;;;;5040404;28;20038;-68
2022/08/20 00:44:42;;;;;;;16.42;10.88;;;18.40;99.90;;;;;;5022734;28;20037;-68
2022/08/20 00:47:08;;;;;;;15.40;10.55;;;18.40;99.90;;;;;;5029568;28;20037;-68
2022/08/20 00:49:33;;;;;;;13.20;9.63;;;18.40;99.90;;;;;;5032340;28;20040;-68
2022/08/20 00:52:14;;;;;;;16.45;10.23;;;18.40;99.90;;;;;;5021959;28;20060;-68
2022/08/20 00:54:45;;;;;;;14.10;9.43;;;18.40;99.90;;;;;;5034596;28;20116;-68
2022/08/20 00:57:15;;;;;;;12.98;9.60;;;18.30;99.90;;;;;;5036227;28;20180;-68
2022/08/20 00:59:42;;;;;;;15.52;9.98;;;18.30;99.90;;;;;;5041634;28;20511;-68
2022/08/20 01:02:12;;;;;;;14.82;10.00;;;18.20;99.90;;;;;;5020458;28;20386;-67
2022/08/20 01:04:39;;;;;;;15.13;10.32;;;18.20;99.90;;;;;;5028278;28;20068;-65
2022/08/20 01:07:06;;;;;;;15.30;9.43;;;18.20;99.90;;;;;;5041735;28;20067;-65
2022/08/20 01:09:34;;;;;;;16.65;9.95;;;18.20;99.90;;;;;;5040881;28;20110;-65
2022/08/20 01:12:01;;;;;;;14.60;9.88;;;18.20;99.90;;;;;;5049720;28;20065;-66
2022/08/20 01:14:37;;;;;;;14.70;9.70;;;18.20;99.90;;;;;;5041334;28;20830;-66
2022/08/20 01:17:06;;;;;;;16.20;9.88;;;18.20;99.90;;;;;;5026820;28;20033;-66
2022/08/20 01:19:41;;;;;;;17.60;11.75;;;18.10;99.90;;;;;;5044545;28;20124;-65
2022/08/20 01:25:06;;;;;;;14.45;9.27;;;18.10;99.90;;;;;;4994562;28;20041;-65
2022/08/20 01:27:33;;;;;;;15.85;9.00;;;18.10;99.90;;;;;;5047124;28;20048;-66
2022/08/20 01:30:00;;;;;;;12.88;9.68;;;18.10;99.90;;;;;;5043056;28;20547;-66
2022/08/20 01:32:26;;;;;;;15.18;9.35;;;18.10;99.90;;;;;;5022286;28;20041;-65
2022/08/20 01:34:51;;;;;;;16.50;9.88;;;18.00;99.90;;;;;;5035170;28;20038;-65
2022/08/20 01:37:17;;;;;;;12.10;8.57;;;18.00;99.90;;;;;;5047760;28;20055;-65
2022/08/20 01:39:43;;;;;;;14.30;10.07;;;18.00;99.90;;;;;;5047630;28;20033;-66
2022/08/20 01:42:37;;;;;;;21.17;10.75;;;18.00;99.90;;;;;;5040116;28;20046;-65
2022/08/20 01:45:06;;;;;;;14.20;9.38;;;18.00;99.90;;;;;;5041781;28;20037;-65
2022/08/20 01:47:32;;;;;;;17.38;8.77;;;18.00;99.90;;;;;;5042559;28;20048;-65
2022/08/20 01:50:02;;;;;;;15.70;9.68;;;18.00;99.90;;;;;;5043279;28;20099;-65
2022/08/20 01:52:40;;;;;;;18.17;10.55;;;18.00;99.90;;;;;;5032203;28;20148;-65
2022/08/20 01:55:07;;;;;;;14.65;9.45;;;18.00;99.90;;;;;;5025703;28;20041;-65
2022/08/20 01:57:34;;;;;;;12.65;8.90;;;17.90;99.90;;;;;;5022678;28;20400;-66
2022/08/20 02:00:00;;;;;;;13.90;10.00;;;17.90;99.90;;;;;;5026674;28;20052;-66
2022/08/20 02:02:27;;;;;;;16.13;9.60;;;17.90;99.90;;;;;;5040832;28;20180;-66
2022/08/20 02:04:52;;;;;;;12.93;9.25;;;17.90;99.90;;;;;;5039346;28;20112;-66
2022/08/20 02:07:21;;;;;;;13.13;9.20;;;17.80;99.90;;;;;;5027121;28;20152;-67
2022/08/20 02:09:48;;;;;;;14.82;9.93;;;17.80;99.90;;;;;;5042170;28;20068;-66
2022/08/20 02:12:15;;;;;;;16.55;9.90;;;17.80;99.90;;;;;;5024081;28;20041;-66
2022/08/20 02:14:44;;;;;;;15.18;10.10;;;17.80;99.90;;;;;;5039192;28;20040;-67
2022/08/20 02:17:12;;;;;;;18.92;9.68;;;17.80;99.90;;;;;;5041397;28;20054;-67
2022/08/20 02:19:46;;;;;;;15.43;9.55;;;17.80;99.90;;;;;;5031123;28;20048;-66
2022/08/20 02:22:33;;;;;;;16.90;9.90;;;17.70;99.90;;;;;;5004732;28;20104;-66
2022/08/20 02:24:58;;;;;;;13.75;9.55;;;17.70;99.90;;;;;;5020118;28;20045;-67
2022/08/20 02:27:24;;;;;;;14.98;9.63;;;17.70;99.90;;;;;;5043548;28;20043;-66
2022/08/20 02:29:51;;;;;;;17.20;9.98;;;17.70;99.90;;;;;;5042883;28;20427;-67
2022/08/20 02:32:18;;;;;;;19.08;10.93;;;17.70;99.90;;;;;;5024725;28;20046;-66
2022/08/20 02:34:44;;;;;;;15.75;9.60;;;17.60;99.90;;;;;;5025151;28;20057;-66
2022/08/20 02:37:10;;;;;;;17.20;9.90;;;17.60;99.90;;;;;;5027359;28;20055;-67
2022/08/20 02:39:36;;;;;;;18.35;10.55;;;17.60;99.90;;;;;;5042800;28;20100;-66
2022/08/20 02:42:02;;;;;;;15.50;9.88;;;17.60;99.90;;;;;;5021810;28;20651;-65
2022/08/20 02:44:30;;;;;;;16.98;10.23;;;17.60;99.90;;;;;;5041645;28;20033;-65
2022/08/20 02:46:56;;;;;;;18.90;10.23;;;17.60;99.90;;;;;;5017819;28;20634;-66
2022/08/20 02:49:21;;;;;;;14.32;10.02;;;17.60;99.90;;;;;;5026536;28;20056;-66
2022/08/20 02:51:48;;;;;;;17.17;10.27;;;17.60;99.90;;;;;;5038436;28;20038;-65
2022/08/20 02:54:14;;;;;;;16.67;10.70;;;17.50;99.90;;;;;;5037595;28;20038;-65
2022/08/20 02:56:40;;;;;;;15.13;10.60;;;17.50;99.90;;;;;;5038918;28;20440;-65
2022/08/20 02:59:06;;;;;;;17.50;10.50;;;17.50;99.90;;;;;;5039904;28;20070;-65
2022/08/20 03:01:32;;;;;;;16.08;11.38;;;17.50;99.90;;;;;;5047386;28;20048;-65
2022/08/20 03:03:58;;;;;;;14.00;10.55;;;17.50;99.90;;;;;;5045533;28;20040;-65
2022/08/20 03:06:25;;;;;;;14.50;11.68;;;17.50;99.90;;;;;;5022417;28;20042;-66
2022/08/20 03:08:51;;;;;;;19.05;11.35;;;17.40;99.90;;;;;;5040841;28;20391;-66
2022/08/20 03:11:17;;;;;;;14.80;10.25;;;17.40;99.90;;;;;;5035222;28;20195;-66
2022/08/20 03:13:44;;;;;;;15.20;11.70;;;17.30;99.90;;;;;;5036208;28;20371;-66
2022/08/20 03:16:10;;;;;;;15.25;11.50;;;17.30;99.90;;;;;;5047718;28;20408;-65
2022/08/20 03:18:39;;;;;;;16.88;11.02;;;17.30;99.90;;;;;;5041179;28;20032;-66
2022/08/20 03:21:06;;;;;;;18.40;11.25;;;17.20;99.90;;;;;;5029373;28;20057;-66
2022/08/20 03:23:33;;;;;;;15.75;10.93;;;17.20;99.90;;;;;;5036708;28;20048;-65
2022/08/20 03:25:59;;;;;;;17.92;11.45;;;17.20;99.90;;;;;;5042291;28;20145;-66
2022/08/20 03:28:25;;;;;;;15.25;10.88;;;17.10;99.90;;;;;;5040537;28;20043;-66
2022/08/20 03:30:52;;;;;;;16.80;11.05;;;17.10;99.90;;;;;;5040155;28;20045;-66
2022/08/20 03:33:19;;;;;;;18.77;11.07;;;17.10;99.90;;;;;;5043966;28;20088;-65
2022/08/20 03:35:45;;;;;;;31.38;13.88;;;17.10;99.90;;;;;;5034107;28;20073;-65
2022/08/20 03:38:12;;;;;;;17.00;12.00;;;17.10;99.90;;;;;;5033273;28;20043;-65
2022/08/20 03:40:38;;;;;;;16.10;9.82;;;17.10;99.90;;;;;;5033821;28;20245;-66
2022/08/20 03:43:07;;;;;;;19.77;11.80;;;17.00;99.90;;;;;;5041415;28;20124;-66
2022/08/20 03:45:34;;;;;;;19.40;12.20;;;17.10;99.90;;;;;;5022458;28;20501;-66
2022/08/20 03:48:01;;;;;;;14.73;10.90;;;17.00;99.90;;;;;;5043189;28;20037;-66
2022/08/20 03:50:29;;;;;;;15.95;10.95;;;17.00;99.90;;;;;;5024085;28;20053;-66
2022/08/20 03:52:56;;;;;;;14.02;10.25;;;17.00;99.90;;;;;;5044011;28;20040;-66
2022/08/20 03:55:23;;;;;;;21.40;11.65;;;16.90;99.90;;;;;;5043631;28;20131;-66
2022/08/20 03:57:55;;;;;;;14.38;10.68;;;17.00;99.90;;;;;;5047256;28;20049;-66
2022/08/20 04:00:32;;;;;;;16.80;11.23;;;16.90;99.90;;;;;;5018793;28;20060;-66
2022/08/20 04:02:59;;;;;;;14.68;10.90;;;16.90;99.90;;;;;;5035267;28;20385;-65
2022/08/20 04:05:26;;;;;;;18.20;11.20;;;16.90;99.90;;;;;;5041826;28;20148;-66
2022/08/20 04:07:51;;;;;;;17.80;11.60;;;16.90;99.90;;;;;;5024571;28;20544;-66
2022/08/20 04:10:18;;;;;;;16.40;10.48;;;16.90;99.90;;;;;;5044071;28;20052;-65
2022/08/20 04:12:44;;;;;;;12.77;10.90;;;16.90;99.90;;;;;;5046137;28;20569;-67
2022/08/20 04:15:14;;;;;;;14.30;10.43;;;16.90;99.90;;;;;;5039007;28;20120;-66
2022/08/20 04:17:42;;;;;;;14.68;10.40;;;16.90;99.90;;;;;;5039584;28;20034;-66
2022/08/20 04:20:10;;;;;;;16.60;10.52;;;16.90;99.90;;;;;;5018562;28;20038;-66
2022/08/20 04:22:36;;;;;;;20.67;10.25;;;16.90;99.90;;;;;;5038706;28;20041;-66
2022/08/20 04:25:03;;;;;;;15.80;9.85;;;16.90;99.90;;;;;;5039230;28;20048;-66
2022/08/20 04:27:31;;;;;;;20.95;10.05;;;16.90;99.90;;;;;;5035503;28;20025;-66
2022/08/20 04:30:02;;;;;;;15.13;9.55;;;16.90;99.90;;;;;;5036548;28;20381;-66
2022/08/20 04:32:28;;;;;;;13.55;8.90;;;16.90;99.90;;;;;;5039589;28;20469;-66
2022/08/20 04:34:54;;;;;;;12.52;8.00;;;16.80;99.90;;;;;;5038854;28;20041;-67
2022/08/20 04:37:21;;;;;;;16.75;8.65;;;16.80;99.90;;;;;;5025261;28;20028;-66
2022/08/20 04:40:52;;;;;;;16.80;8.85;;;16.80;99.90;;;;;;5043957;28;20068;-66
2022/08/20 04:42:37;;;;;;;14.68;7.90;;;16.70;99.90;;;;;;5042089;28;20475;-66
2022/08/20 04:45:07;;;;;;;13.65;7.68;;;16.70;99.90;;;;;;5030379;28;20048;-66
2022/08/20 04:47:34;;;;;;;15.07;7.93;;;16.70;99.90;;;;;;5047660;28;20102;-66
2022/08/20 04:50:00;;;;;;;16.05;7.95;;;16.60;99.90;;;;;;5040786;28;20511;-66
2022/08/20 04:52:27;;;;;;;13.15;7.20;;;16.60;99.90;;;;;;5024401;28;20033;-67
2022/08/20 04:54:55;;;;;;;15.60;8.18;;;16.60;99.90;;;;;;5025577;28;20392;-66
2022/08/20 04:57:25;;;;;;;14.38;7.65;;;16.60;99.90;;;;;;5024211;28;20150;-66
2022/08/20 04:59:52;;;;;;;13.77;7.72;;;16.60;99.90;;;;;;5043544;28;20056;-66
2022/08/20 05:02:21;;;;;;;18.92;8.00;;;16.50;99.90;;;;;;5044810;28;20053;-66
2022/08/20 05:04:47;;;;;;;17.92;6.95;;;16.50;99.90;;;;;;5023015;28;20049;-65
2022/08/20 05:07:15;;;;;;;15.70;7.15;;;16.50;99.90;;;;;;5023083;28;20045;-66
2022/08/20 05:09:41;;;;;;;16.42;6.10;;;16.40;99.90;;;;;;5040798;28;20048;-66
2022/08/20 05:12:08;;;;;;;12.48;6.45;;;16.40;99.90;;;;;;5044217;28;20053;-66
2022/08/20 05:14:33;;;;;;;15.35;6.22;;;16.40;99.90;;;;;;5021304;28;20033;-66
2022/08/20 05:17:05;;;;;;;16.35;6.97;;;16.40;99.90;;;;;;5023139;28;20113;-65
2022/08/20 05:19:33;;;;;;;20.70;7.15;;;16.40;99.90;;;;;;5031511;28;20065;-66
2022/08/20 05:21:59;;;;;;;18.40;6.60;;;16.30;99.90;;;;;;5044108;28;20136;-66
2022/08/20 05:24:25;;;;;;;11.85;6.60;;;16.30;99.90;;;;;;5046026;28;20044;-66
2022/08/20 05:26:53;;;;;;;14.85;6.80;;;16.30;99.90;;;;;;5045580;28;20042;-66
2022/08/20 05:29:20;;;;;;;15.07;6.90;;;16.30;99.90;;;;;;5028506;28;20470;-65
2022/08/20 05:31:46;;;;;;;11.70;6.05;;;16.20;99.90;;;;;;5044238;28;20123;-66
2022/08/20 05:34:12;;;;;;;14.77;6.93;;;16.20;99.90;;;;;;5029001;28;20479;-66
2022/08/20 05:36:39;;;;;;;16.90;6.93;;;16.20;99.90;;;;;;5042224;28;20425;-66
2022/08/20 05:39:05;;;;;;;15.85;7.60;;;16.30;99.90;;;;;;5043082;28;20112;-66
2022/08/20 05:41:31;;;;;;;12.38;6.28;;;16.30;99.90;;;;;;5045975;28;20108;-66
2022/08/20 05:43:59;;;;;;;16.73;7.03;;;16.40;99.90;;;;;;5041831;28;20444;-66
2022/08/20 05:46:25;;;;;;;16.20;6.90;;;16.40;99.90;;;;;;5044077;28;20049;-66
2022/08/20 05:48:51;;;;;;;12.82;6.20;;;16.50;99.90;;;;;;5042673;28;20365;-66
2022/08/20 05:51:17;;;;;;;13.48;6.45;;;16.50;99.90;;;;;;5042613;28;20041;-66
2022/08/20 05:53:42;;;;;;;14.45;6.80;;;16.60;99.90;;;;;;5020159;28;20276;-66
2022/08/20 05:56:10;;;;;;;14.15;6.03;;;16.60;99.90;;;;;;5037585;28;20033;-66
2022/08/20 05:58:36;;;;;;;12.50;6.38;;;16.60;99.90;;;;;;5041616;28;20141;-66
2022/08/20 06:01:03;;;;;;;12.48;6.22;;;16.60;99.90;;;;;;5039511;28;20042;-65
2022/08/20 06:06:14;;;;;;;10.80;6.35;;;16.70;99.90;;;;;;5040094;28;20053;-65
2022/08/20 06:08:40;;;;;;;10.63;6.90;;;16.80;99.90;;;;;;5041163;28;20087;-67
2022/08/20 06:11:07;;;;;;;14.57;7.22;;;16.90;99.90;;;;;;5027695;28;20111;-66
2022/08/20 06:13:33;;;;;;;16.48;6.70;;;17.00;99.90;;;;;;5041804;28;20041;-67
2022/08/20 06:16:00;;;;;;;14.70;6.75;;;17.10;99.90;;;;;;5008653;28;20123;-66
2022/08/20 06:18:26;;;;;;;12.43;5.38;;;17.20;99.90;;;;;;5008137;28;20089;-66
2022/08/20 06:20:51;;;;;;;11.50;5.50;;;17.30;99.90;;;;;;5041970;28;20097;-66
2022/08/20 06:23:18;;;;;;;14.13;5.50;;;17.30;99.90;;;;;;5046377;28;20148;-66
2022/08/20 06:25:48;;;;;;;9.05;5.22;;;17.40;99.90;;;;;;5030759;28;20146;-66
2022/08/20 06:28:14;;;;;;;12.95;5.18;;;17.40;99.90;;;;;;5023367;28;20076;-66
2022/08/20 06:30:40;;;;;;;11.02;4.78;;;17.50;99.90;;;;;;5047149;28;20088;-66
2022/08/20 06:33:05;;;;;;;13.07;5.32;;;17.50;99.90;;;;;;5025466;28;20053;-66
2022/08/20 06:35:32;;;;;;;9.70;4.85;;;17.60;99.90;;;;;;5043419;28;20048;-66
2022/08/20 06:37:59;;;;;;;10.40;4.97;;;17.60;99.90;;;;;;5027958;28;20366;-66
2022/08/20 06:40:27;;;;;;;10.77;4.57;;;17.60;99.90;;;;;;5044639;28;20369;-66
2022/08/20 06:42:54;;;;;;;10.75;4.65;;;17.70;99.90;;;;;;5041229;28;20045;-66
2022/08/20 06:45:23;;;;;;;10.32;3.85;;;17.80;99.90;;;;;;5035836;28;20037;-66
2022/08/20 06:47:50;;;;;;;8.75;3.80;;;17.90;99.90;;;;;;5004591;28;20037;-66
2022/08/20 06:50:21;;;;;;;12.02;4.22;;;18.10;99.90;;;;;;5036964;28;20104;-66
2022/08/20 06:52:46;;;;;;;14.65;4.93;;;18.20;99.90;;;;;;5049158;28;20045;-66
2022/08/20 06:55:14;;;;;;;15.77;4.90;;;18.40;99.90;;;;;;5041395;28;20037;-66
2022/08/20 06:57:40;;;;;;;12.63;3.35;;;18.60;99.90;;;;;;5039942;28;20057;-66
2022/08/20 07:00:09;;;;;;;30.95;26.63;;;18.70;99.90;;;;;;5023680;28;20077;-66
2022/08/20 07:02:35;;;;;;;119.60;107.43;;;18.90;99.90;;;;;;5041867;28;20037;-66
2022/08/20 07:05:02;;;;;;;15.77;9.48;;;18.90;99.90;;;;;;5045676;28;20068;-67
2022/08/20 07:07:28;;;;;;;11.73;2.10;;;18.90;99.90;;;;;;5047922;28;20048;-66
2022/08/20 07:10:01;;;;;;;9.48;2.60;;;19.00;99.90;;;;;;5038157;28;20033;-66
2022/08/20 07:12:27;;;;;;;5.50;1.35;;;19.00;99.90;;;;;;5046146;28;20036;-66
2022/08/20 07:14:53;;;;;;;9.57;2.05;;;19.00;99.90;;;;;;5022002;28;20413;-66
2022/08/20 07:17:18;;;;;;;7.72;1.40;;;19.10;99.90;;;;;;5050565;28;20527;-66
2022/08/20 07:19:44;;;;;;;6.22;1.55;;;19.00;99.90;;;;;;5048169;28;20045;-66
2022/08/20 07:22:12;;;;;;;10.32;1.80;;;19.00;99.90;;;;;;5044488;28;20041;-66
2022/08/20 07:24:38;;;;;;;9.00;1.42;;;18.90;99.90;;;;;;5023554;28;20527;-67
2022/08/20 07:27:04;;;;;;;6.35;1.33;;;18.90;99.90;;;;;;5044950;28;20037;-66
2022/08/20 07:32:33;;;;;;;9.18;1.40;;;19.00;99.90;;;;;;5040317;28;20034;-66
2022/08/20 07:32:33;;;;;;;7.03;0.98;;;19.00;99.90;;;;;;5040637;28;20057;-66
2022/08/20 07:34:59;;;;;;;7.47;1.65;;;19.20;99.90;;;;;;5036153;28;20045;-65
2022/08/20 07:37:25;;;;;;;9.73;1.30;;;19.40;99.90;;;;;;5038190;28;20052;-68
2022/08/20 07:39:51;;;;;;;7.28;1.30;;;19.50;99.90;;;;;;5044196;28;20036;-64
2022/08/20 07:42:18;;;;;;;5.30;1.27;;;19.70;99.90;;;;;;5044620;28;20389;-66
2022/08/20 07:44:43;;;;;;;7.63;1.23;;;19.80;99.90;;;;;;5040704;28;20389;-66
2022/08/20 07:47:09;;;;;;;5.25;0.90;;;20.00;99.90;;;;;;5023682;28;20056;-66
2022/08/20 07:49:41;;;;;;;5.95;1.00;;;20.10;99.90;;;;;;5025355;28;20087;-66
2022/08/20 07:52:06;;;;;;;11.05;1.30;;;20.20;99.90;;;;;;5042264;28;20051;-66
2022/08/20 07:54:34;;;;;;;8.05;1.52;;;20.80;99.90;;;;;;5037240;28;20135;-66
2022/08/20 07:57:03;;;;;;;25.33;15.55;;;21.50;99.90;;;;;;5038593;28;20385;-64
2022/08/20 07:59:30;;;;;;;25.38;22.90;;;22.30;99.90;;;;;;5043980;28;20306;-65
2022/08/20 08:01:58;;;;;;;3.90;0.95;;;22.90;99.90;;;;;;5040322;28;20033;-64
2022/08/20 08:04:24;;;;;;;7.07;1.30;;;23.40;99.90;;;;;;5025499;28;20412;-65
2022/08/20 08:06:51;;;;;;;6.97;1.40;;;23.90;99.90;;;;;;5027116;28;20049;-64
2022/08/20 08:09:17;;;;;;;5.35;0.88;;;24.30;99.90;;;;;;5038423;28;20366;-66
2022/08/20 08:11:50;;;;;;;6.97;1.00;;;24.70;97.00;;;;;;5046349;28;20042;-64
2022/08/20 08:14:23;;;;;;;7.10;1.30;;;24.80;93.70;;;;;;5045176;28;20041;-65
2022/08/20 08:16:50;;;;;;;6.40;1.23;;;25.00;95.10;;;;;;5048517;28;20396;-65
2022/08/20 08:19:17;;;;;;;5.65;1.20;;;25.40;95.20;;;;;;5042995;28;20337;-65
2022/08/20 08:21:43;;;;;;;6.65;1.00;;;25.60;95.20;;;;;;5038463;28;20045;-66
2022/08/20 08:24:10;;;;;;;5.40;0.95;;;25.90;93.20;;;;;;5035474;28;20041;-66
2022/08/20 08:26:36;;;;;;;5.32;0.85;;;26.20;91.90;;;;;;5025217;28;20143;-66
2022/08/20 08:29:06;;;;;;;7.15;0.98;;;26.30;90.30;;;;;;5018813;28;20395;-67
2022/08/20 08:31:32;;;;;;;7.85;3.90;;;26.40;90.70;;;;;;5041320;28;20044;-66
2022/08/20 08:33:58;;;;;;;4.22;0.80;;;26.70;86.20;;;;;;5040666;28;20047;-67
2022/08/20 08:36:25;;;;;;;4.97;0.60;;;26.80;85.30;;;;;;5023904;28;20056;-67
2022/08/20 08:38:52;;;;;;;5.10;0.77;;;26.70;77.00;;;;;;5044031;28;20036;-67
2022/08/20 08:41:32;;;;;;;3.97;0.88;;;26.60;76.80;;;;;;5042410;28;20546;-68
2022/08/20 08:44:09;;;;;;;4.85;0.90;;;26.70;79.00;;;;;;5021007;28;20055;-68
2022/08/20 08:46:42;;;;;;;3.55;0.57;;;26.90;73.80;;;;;;5039551;28;20044;-67
2022/08/20 08:49:13;;;;;;;6.07;0.77;;;27.00;68.10;;;;;;5018993;28;20087;-69
2022/08/20 08:51:49;;;;;;;3.38;0.65;;;26.80;72.60;;;;;;5020075;28;20041;-68
2022/08/20 08:54:25;;;;;;;5.15;0.90;;;27.10;67.60;;;;;;5028738;28;20084;-69
2022/08/20 08:56:52;;;;;;;3.65;0.70;;;27.30;72.70;;;;;;5022578;28;20120;-70
2022/08/20 08:59:19;;;;;;;4.18;0.80;;;27.40;73.30;;;;;;5041144;28;20065;-69
2022/08/20 09:01:57;;;;;;;3.83;0.80;;;27.50;69.30;;;;;;5022797;28;20389;-70
2022/08/20 09:04:31;;;;;;;3.58;0.75;;;27.50;65.40;;;;;;5024352;28;20251;-68
2022/08/20 09:06:58;;;;;;;3.38;0.60;;;27.30;62.40;;;;;;5024999;28;20041;-69
2022/08/20 09:09:30;;;;;;;5.70;1.08;;;27.10;68.50;;;;;;5018974;28;20081;-69
2022/08/20 09:12:03;;;;;;;77.07;69.97;;;27.20;66.10;;;;;;5014031;28;20053;-70
2022/08/20 09:14:28;;;;;;;5.65;1.60;;;27.30;65.20;;;;;;5018444;28;20167;-70
2022/08/20 09:16:54;;;;;;;8.00;0.93;;;27.50;67.40;;;;;;5021004;28;20087;-71
2022/08/20 09:19:20;;;;;;;5.35;0.90;;;27.70;67.00;;;;;;5025872;28;20045;-70
2022/08/20 09:21:46;;;;;;;3.95;0.90;;;27.80;65.00;;;;;;5035654;28;20056;-70
2022/08/20 09:24:12;;;;;;;4.57;0.93;;;27.70;62.10;;;;;;5021922;28;20894;-70
2022/08/20 09:26:37;;;;;;;4.43;0.95;;;27.80;64.70;;;;;;5026035;28;20061;-70
2022/08/20 09:29:03;;;;;;;4.90;1.00;;;27.90;62.70;;;;;;5026316;28;20088;-67
2022/08/20 09:31:29;;;;;;;5.20;0.82;;;28.00;63.30;;;;;;5042301;28;20046;-69
2022/08/20 09:33:54;;;;;;;9.18;8.13;;;28.20;63.20;;;;;;5027647;28;20044;-70
2022/08/20 09:36:20;;;;;;;21.73;19.40;;;28.20;60.20;;;;;;5024918;28;20847;-70
2022/08/20 09:38:46;;;;;;;30.00;27.23;;;28.40;62.50;;;;;;5026421;28;20507;-71
2022/08/20 09:41:11;;;;;;;4.28;1.17;;;28.50;62.20;;;;;;5029499;28;20064;-70
2022/08/20 09:43:37;;;;;;;4.57;1.00;;;28.60;61.70;;;;;;5029721;28;20159;-71
2022/08/20 09:46:03;;;;;;;6.07;0.93;;;28.60;60.50;;;;;;5028344;28;20044;-70
2022/08/20 09:48:29;;;;;;;4.15;0.98;;;28.60;60.30;;;;;;5027988;28;20044;-70
2022/08/20 09:50:55;;;;;;;6.80;1.10;;;28.80;60.80;;;;;;5028798;28;20138;-70
2022/08/20 09:53:21;;;;;;;3.35;0.70;;;28.90;59.20;;;;;;5028626;28;20176;-70
2022/08/20 09:55:52;;;;;;;7.15;0.80;;;28.90;59.90;;;;;;5030982;28;20049;-70
2022/08/20 09:58:23;;;;;;;3.38;0.55;;;29.10;59.40;;;;;;5025419;28;20060;-70
2022/08/20 10:00:49;;;;;;;4.15;1.00;;;29.10;57.00;;;;;;5022959;28;20044;-71
2022/08/20 10:03:15;;;;;;;4.68;1.05;;;28.90;59.30;;;;;;5024037;28;20122;-70
2022/08/20 10:05:41;;;;;;;5.07;1.10;;;29.00;57.10;;;;;;5031495;28;20053;-69
2022/08/20 10:08:09;;;;;;;3.95;0.77;;;28.80;56.90;;;;;;5017958;28;20056;-70
2022/08/20 10:10:35;;;;;;;34.05;31.08;;;28.70;55.70;;;;;;5030110;28;20056;-69
2022/08/20 10:13:01;;;;;;;35.00;31.58;;;28.20;55.50;;;;;;5032921;28;20064;-68
2022/08/20 10:15:28;;;;;;;6.25;3.97;;;27.60;54.90;;;;;;5029947;28;20342;-70
2022/08/20 10:17:53;;;;;;;3.90;0.93;;;27.30;56.50;;;;;;5025666;28;20045;-71
2022/08/20 10:20:19;;;;;;;2.75;0.55;;;27.40;59.20;;;;;;5030766;28;20030;-70
2022/08/20 10:22:45;;;;;;;3.30;0.50;;;27.50;57.60;;;;;;5017883;28;20049;-70
2022/08/20 10:25:11;;;;;;;3.30;0.85;;;27.30;55.10;;;;;;5029743;28;20048;-70
2022/08/20 10:27:37;;;;;;;2.58;0.68;;;27.00;54.70;;;;;;5022757;28;20489;-70
2022/08/20 10:30:05;;;;;;;4.85;1.05;;;27.10;57.10;;;;;;5028925;28;20105;-71
2022/08/20 10:32:31;;;;;;;5.05;0.70;;;27.40;56.50;;;;;;5029490;28;20061;-70
2022/08/20 10:34:57;;;;;;;4.70;1.02;;;27.60;58.10;;;;;;5028583;28;20060;-71
2022/08/20 10:37:24;;;;;;;5.63;0.82;;;27.80;56.80;;;;;;5028424;28;20420;-70
2022/08/20 10:39:51;;;;;;;5.32;0.80;;;27.60;54.70;;;;;;5026674;28;20040;-70
2022/08/20 10:42:17;;;;;;;3.67;0.70;;;27.00;55.20;;;;;;5024121;28;20038;-70
2022/08/20 10:44:43;;;;;;;3.13;0.70;;;26.60;55.10;;;;;;5025824;28;20090;-70
2022/08/20 10:47:16;;;;;;;5.85;0.90;;;26.20;57.60;;;;;;5025776;28;20431;-69
2022/08/20 10:49:42;;;;;;;4.78;0.88;;;26.30;58.60;;;;;;5020506;28;20049;-70
2022/08/20 10:52:08;;;;;;;3.47;0.70;;;26.80;59.20;;;;;;5021897;28;20409;-70
2022/08/20 10:54:33;;;;;;;2.47;0.50;;;27.30;57.20;;;;;;5021609;28;20408;-70
2022/08/20 10:57:03;;;;;;;3.95;0.90;;;27.20;55.80;;;;;;5022567;28;20046;-70
2022/08/20 10:59:30;;;;;;;100.43;90.78;;;26.90;54.40;;;;;;5042085;28;20417;-69
2022/08/20 11:01:55;;;;;;;7.95;4.00;;;26.60;55.30;;;;;;5032939;28;20084;-70
2022/08/20 11:04:21;;;;;;;5.40;1.23;;;26.30;55.00;;;;;;5025631;28;20461;-70
2022/08/20 11:06:47;;;;;;;3.72;0.82;;;26.30;56.00;;;;;;5027608;28;20413;-70
2022/08/20 11:09:12;;;;;;;12.02;9.80;;;26.50;55.40;;;;;;5029081;28;20052;-69
2022/08/20 11:11:38;;;;;;;26.80;23.95;;;26.80;55.30;;;;;;5028213;28;20096;-70
2022/08/20 11:14:04;;;;;;;6.88;1.40;;;27.30;56.10;;;;;;5033452;28;20143;-71
2022/08/20 11:16:29;;;;;;;5.82;1.10;;;27.70;55.00;;;;;;5025587;28;20036;-70
2022/08/20 11:18:55;;;;;;;3.92;0.88;;;27.60;54.20;;;;;;5041553;28;20152;-69
2022/08/20 11:21:21;;;;;;;3.70;0.70;;;27.20;55.50;;;;;;5025234;28;20059;-70
2022/08/20 11:23:46;;;;;;;4.68;0.77;;;26.70;55.20;;;;;;5025727;28;20123;-69
2022/08/20 11:26:21;;;;;;;3.83;1.60;;;26.50;55.50;;;;;;5011691;28;20449;-70
2022/08/20 11:28:47;;;;;;;4.25;0.90;;;26.80;54.90;;;;;;5025105;28;20143;-69
2022/08/20 11:31:12;;;;;;;4.88;0.98;;;27.10;55.60;;;;;;5026060;28;20108;-69
2022/08/20 11:33:38;;;;;;;4.93;1.00;;;26.80;53.50;;;;;;5022892;28;20041;-69
2022/08/20 11:36:04;;;;;;;5.00;1.02;;;26.30;53.40;;;;;;5020341;28;20041;-71
2022/08/20 11:38:30;;;;;;;4.72;0.90;;;25.80;54.40;;;;;;5023032;28;20033;-70
2022/08/20 11:40:56;;;;;;;4.93;0.90;;;25.50;55.30;;;;;;5022039;28;20044;-70
2022/08/20 11:43:21;;;;;;;4.80;1.00;;;25.60;56.90;;;;;;5028246;28;20455;-70
2022/08/20 11:45:52;;;;;;;5.82;1.08;;;26.00;57.90;;;;;;5024844;28;20628;-71
2022/08/20 11:48:19;;;;;;;4.97;0.90;;;26.00;56.20;;;;;;5026266;28;20034;-70
2022/08/20 11:50:45;;;;;;;3.65;0.70;;;25.90;57.10;;;;;;5026328;28;20060;-71
2022/08/20 11:53:11;;;;;;;3.22;0.90;;;26.10;56.60;;;;;;5022463;28;20108;-70
2022/08/20 11:55:37;;;;;;;5.50;1.17;;;26.50;56.80;;;;;;5026376;28;20134;-69
2022/08/20 11:58:03;;;;;;;6.00;0.98;;;27.20;55.20;;;;;;5019703;28;20058;-69
2022/08/20 12:00:30;;;;;;;5.10;0.93;;;27.50;52.30;;;;;;5021185;28;20194;-70
2022/08/20 12:02:55;;;;;;;5.80;1.10;;;27.90;51.40;;;;;;5020353;28;20037;-69
2022/08/20 12:05:21;;;;;;;3.83;0.90;;;28.30;51.60;;;;;;5024873;28;20136;-70
2022/08/20 12:07:47;;;;;;;5.75;1.15;;;28.70;51.80;;;;;;5023962;28;20037;-70
2022/08/20 12:10:14;;;;;;;5.75;1.05;;;29.30;49.60;;;;;;5045536;28;20033;-69
2022/08/20 12:12:39;;;;;;;3.50;0.90;;;29.80;49.00;;;;;;5024830;28;20033;-70
2022/08/20 12:15:07;;;;;;;4.78;1.50;;;30.30;51.90;;;;;;5025875;28;20124;-70
2022/08/20 12:17:34;;;;;;;4.43;0.88;;;30.80;50.70;;;;;;5010061;28;20037;-71
2022/08/20 12:20:03;;;;;;;3.60;0.93;;;31.10;48.50;;;;;;5024323;28;20473;-70
2022/08/20 12:22:29;;;;;;;4.50;1.10;;;31.30;47.30;;;;;;5022141;28;20072;-69
2022/08/20 12:24:55;;;;;;;4.03;0.95;;;31.40;46.60;;;;;;5021280;28;20036;-70
2022/08/20 12:27:27;;;;;;;159.70;144.23;;;31.10;47.50;;;;;;5024125;28;20038;-72
2022/08/20 12:29:55;;;;;;;18.02;16.08;;;31.00;45.20;;;;;;5038026;28;20066;-70
2022/08/20 12:32:24;;;;;;;5.95;4.20;;;30.50;46.00;;;;;;5028627;28;20469;-69
2022/08/20 12:34:49;;;;;;;86.65;77.97;;;29.40;46.70;;;;;;5020218;28;20069;-69
2022/08/20 12:37:19;;;;;;;5.60;4.03;;;28.50;47.80;;;;;;5016517;28;20049;-69
2022/08/20 12:39:47;;;;;;;3.28;0.80;;;27.60;49.90;;;;;;5005650;28;20080;-70
2022/08/20 12:42:13;;;;;;;3.65;0.68;;;26.90;51.20;;;;;;5024543;28;20056;-68
2022/08/20 12:44:42;;;;;;;5.00;1.05;;;26.40;52.90;;;;;;5019256;28;20046;-70